createdAt,value
2018-01-10T00:01:35.822Z,94093.28
2018-01-10T00:04:03.519Z,94079.55
2018-01-10T00:06:31.297Z,94087.66
2018-01-10T00:08:59.216Z,94084.77
2018-01-10T00:11:26.950Z,94085.33
2018-01-10T00:13:54.632Z,94087.47
2018-01-10T00:16:22.359Z,94085.85
2018-01-10T00:18:50.089Z,94074.71
2018-01-10T00:21:18.849Z,94073.57
2018-01-10T00:23:46.548Z,94067.08
2018-01-10T00:26:14.537Z,94065.50
2018-01-10T00:28:42.201Z,94068.23
2018-01-10T00:31:09.863Z,94038.72
2018-01-10T00:33:37.612Z,94034.50
2018-01-10T00:36:05.298Z,94036.73
2018-01-10T00:38:33.034Z,94044.98
2018-01-10T00:41:00.769Z,94034.45
2018-01-10T00:43:28.492Z,94024.39
2018-01-10T00:45:56.225Z,94018.37
2018-01-10T00:48:23.901Z,94023.39
2018-01-10T00:50:51.624Z,94027.69
2018-01-10T00:53:19.390Z,94022.19
2018-01-10T00:55:47.067Z,94029.45
2018-01-10T00:58:14.826Z,94033.76
2018-01-10T01:00:42.503Z,94033.05
2018-01-10T01:03:10.187Z,94022.45
2018-01-10T01:05:37.954Z,94013.11
2018-01-10T01:08:05.633Z,94019.28
2018-01-10T01:10:33.352Z,94046.39
2018-01-10T01:13:01.198Z,94071.68
2018-01-10T01:15:28.939Z,94092.63
2018-01-10T01:17:56.666Z,94093.87
2018-01-10T01:20:24.365Z,94085.87
2018-01-10T01:22:52.107Z,94085.79
2018-01-10T01:25:19.818Z,94076.14
2018-01-10T01:27:47.525Z,94073.27
2018-01-10T01:30:15.228Z,94059.02
2018-01-10T01:32:42.967Z,94065.50
2018-01-10T01:35:10.677Z,94063.18
2018-01-10T01:37:38.453Z,94057.92
2018-01-10T01:40:06.153Z,94054.77
2018-01-10T01:42:34.489Z,94056.05
2018-01-10T01:45:02.163Z,94046.72
2018-01-10T01:47:30.832Z,94044.47
2018-01-10T01:49:58.544Z,94036.64
2018-01-10T01:52:26.246Z,94031.20
2018-01-10T01:54:53.963Z,94035.92
2018-01-10T01:57:21.649Z,94047.03
2018-01-10T01:59:49.401Z,94046.64
2018-01-10T02:02:17.078Z,94042.08
2018-01-10T02:04:44.810Z,94038.41
2018-01-10T02:07:12.562Z,94024.62
2018-01-10T02:09:40.241Z,94025.92
2018-01-10T02:12:08.115Z,94028.77
2018-01-10T02:14:35.966Z,94016.13
2018-01-10T02:17:03.649Z,93995.30
2018-01-10T02:19:31.432Z,93984.73
2018-01-10T02:21:59.127Z,93957.36
2018-01-10T02:24:26.903Z,93950.52
2018-01-10T02:26:54.601Z,93963.31
2018-01-10T02:29:23.249Z,93978.13
2018-01-10T02:31:50.994Z,93986.30
2018-01-10T02:34:18.690Z,93976.47
2018-01-10T02:36:46.498Z,93984.59
2018-01-10T02:39:14.203Z,93987.09
2018-01-10T02:41:41.898Z,94002.40
2018-01-10T02:44:09.636Z,93991.45
2018-01-10T02:46:37.355Z,93979.55
2018-01-10T02:49:05.022Z,93975.27
2018-01-10T02:51:32.748Z,93967.25
2018-01-10T02:54:00.436Z,93965.05
2018-01-10T02:56:28.198Z,93952.81
2018-01-10T02:58:55.909Z,93954.63
2018-01-10T03:01:23.972Z,93958.67
2018-01-10T03:03:51.672Z,93973.71
2018-01-10T03:06:19.426Z,93964.23
2018-01-10T03:08:47.145Z,93959.78
2018-01-10T03:11:14.910Z,93941.23
2018-01-10T03:13:42.608Z,93934.63
2018-01-10T03:16:10.317Z,93926.08
2018-01-10T03:18:38.038Z,93921.57
2018-01-10T03:21:05.724Z,93924.36
2018-01-10T03:23:33.436Z,93941.75
2018-01-10T03:26:01.111Z,93947.30
2018-01-10T03:28:28.911Z,93944.88
2018-01-10T03:30:56.655Z,93943.16
2018-01-10T03:33:24.450Z,93940.71
2018-01-10T03:35:52.111Z,93942.25
2018-01-10T03:38:19.828Z,93946.80
2018-01-10T03:40:47.575Z,93947.91
2018-01-10T03:43:15.296Z,93937.39
2018-01-10T03:45:42.986Z,93943.77
2018-01-10T03:48:10.699Z,93941.83
2018-01-10T03:50:38.456Z,93932.77
2018-01-10T03:53:06.144Z,93933.51
2018-01-10T03:55:33.894Z,93929.19
2018-01-10T03:58:01.570Z,93930.73
2018-01-10T04:00:30.206Z,93923.08
2018-01-10T04:02:57.924Z,93923.72
2018-01-10T04:05:25.608Z,93913.14
2018-01-10T04:07:53.374Z,93900.27
2018-01-10T04:10:21.120Z,93896.59
2018-01-10T04:12:48.855Z,93890.28
2018-01-10T04:15:16.598Z,93889.91
2018-01-10T04:17:44.342Z,93892.15
2018-01-10T04:20:12.024Z,93890.28
2018-01-10T04:22:39.758Z,93891.56
2018-01-10T04:25:07.447Z,93887.22
2018-01-10T04:27:35.162Z,93884.89
2018-01-10T04:30:03.025Z,93878.10
2018-01-10T04:32:30.720Z,93883.61
2018-01-10T04:34:58.409Z,93883.61
2018-01-10T04:37:26.135Z,93890.36
2018-01-10T04:39:54.265Z,93878.60
2018-01-10T04:42:22.056Z,93875.86
2018-01-10T04:44:49.735Z,93868.87
2018-01-10T04:47:17.465Z,93863.69
2018-01-10T04:49:45.196Z,93856.50
2018-01-10T04:52:12.939Z,93850.56
2018-01-10T04:54:40.731Z,93849.94
2018-01-10T04:57:08.453Z,93835.08
2018-01-10T04:59:36.179Z,93835.87
2018-01-10T05:02:03.912Z,93849.48
2018-01-10T05:04:31.619Z,93853.55
2018-01-10T05:06:59.409Z,93856.34
2018-01-10T05:09:27.149Z,93859.55
2018-01-10T05:11:54.870Z,93858.89
2018-01-10T05:14:23.039Z,93864.77
2018-01-10T05:16:50.769Z,93866.27
2018-01-10T05:19:18.498Z,93866.13
2018-01-10T05:21:46.266Z,93863.28
2018-01-10T05:24:13.976Z,93861.95
2018-01-10T05:26:41.801Z,93854.43
2018-01-10T05:29:09.824Z,93850.67
2018-01-10T05:31:37.638Z,93844.80
2018-01-10T05:34:05.367Z,93843.62
2018-01-10T05:36:33.305Z,93844.33
2018-01-10T05:39:01.080Z,93845.61
2018-01-10T05:41:29.067Z,93839.27
2018-01-10T05:43:56.863Z,93847.17
2018-01-10T05:46:24.556Z,93838.95
2018-01-10T05:48:52.304Z,93839.09
2018-01-10T05:51:20.039Z,93838.75
2018-01-10T05:53:47.788Z,93850.94
2018-01-10T05:56:15.519Z,93846.86
2018-01-10T05:58:43.220Z,93845.13
2018-01-10T06:01:10.976Z,93853.69
2018-01-10T06:03:38.753Z,93855.77
2018-01-10T06:06:06.548Z,93864.84
2018-01-10T06:08:34.267Z,93869.88
2018-01-10T06:11:03.215Z,93871.02
2018-01-10T06:13:30.990Z,93869.15
2018-01-10T06:15:59.224Z,93871.08
2018-01-10T06:18:26.911Z,93871.70
2018-01-10T06:20:54.678Z,93875.23
2018-01-10T06:23:22.381Z,93882.47
2018-01-10T06:25:50.112Z,93888.75
2018-01-10T06:28:17.801Z,93878.25
2018-01-10T06:30:45.520Z,93873.41
2018-01-10T06:33:13.264Z,93871.31
2018-01-10T06:35:40.998Z,93861.17
2018-01-10T06:38:08.763Z,93859.90
2018-01-10T06:40:36.427Z,93858.13
2018-01-10T06:43:04.190Z,93856.42
2018-01-10T06:45:31.892Z,93857.84
2018-01-10T06:47:59.584Z,93857.48
2018-01-10T06:50:27.379Z,93849.63
2018-01-10T06:52:55.200Z,93843.13
2018-01-10T06:55:22.868Z,93841.33
2018-01-10T06:57:51.688Z,93843.20
2018-01-10T07:00:19.596Z,93833.06
2018-01-10T07:02:47.340Z,93819.74
2018-01-10T07:05:15.186Z,93815.75
2018-01-10T07:07:42.887Z,93813.29
2018-01-10T07:10:10.655Z,93803.34
2018-01-10T07:12:38.429Z,93802.89
2018-01-10T07:15:06.108Z,93828.76
2018-01-10T07:17:34.078Z,93854.09
2018-01-10T07:20:01.833Z,93851.07
2018-01-10T07:22:29.622Z,93840.14
2018-01-10T07:24:57.345Z,93837.94
2018-01-10T07:27:25.049Z,93831.10
2018-01-10T07:29:52.785Z,93826.70
2018-01-10T07:32:20.570Z,93819.33
2018-01-10T07:34:48.367Z,93811.98
2018-01-10T07:37:16.174Z,93827.30
2018-01-10T07:39:44.062Z,93848.95
2018-01-10T07:42:11.791Z,93862.70
2018-01-10T07:44:39.503Z,93863.02
2018-01-10T07:47:07.264Z,93855.82
2018-01-10T07:49:34.981Z,93849.23
2018-01-10T07:52:02.698Z,93832.99
2018-01-10T07:54:30.465Z,93826.11
2018-01-10T07:56:58.209Z,93827.48
2018-01-10T07:59:25.883Z,93836.52
2018-01-10T08:01:53.612Z,93858.58
2018-01-10T08:04:21.289Z,93870.89
2018-01-10T08:06:49.166Z,93871.56
2018-01-10T08:09:16.909Z,93874.90
2018-01-10T08:11:44.603Z,93882.24
2018-01-10T08:14:12.349Z,93890.02
2018-01-10T08:16:40.141Z,93886.60
2018-01-10T08:19:08.046Z,93883.00
2018-01-10T08:21:35.828Z,93875.77
2018-01-10T08:24:03.520Z,93875.70
2018-01-10T08:26:31.286Z,93873.66
2018-01-10T08:28:59.004Z,93872.55
2018-01-10T08:31:26.814Z,93874.64
2018-01-10T08:33:54.577Z,93877.63
2018-01-10T08:36:22.261Z,93881.82
2018-01-10T08:38:49.949Z,93877.77
2018-01-10T08:41:17.705Z,93873.66
2018-01-10T08:43:45.388Z,93884.80
2018-01-10T08:46:13.119Z,93887.13
2018-01-10T08:48:40.942Z,93884.41
2018-01-10T08:51:09.241Z,93889.13
2018-01-10T08:53:37.260Z,93884.06
2018-01-10T08:56:05.059Z,93898.27
2018-01-10T08:58:32.819Z,93900.67
2018-01-10T09:01:00.648Z,93896.47
2018-01-10T09:03:28.795Z,93894.75
2018-01-10T09:05:56.696Z,93897.71
2018-01-10T09:08:24.499Z,93904.02
2018-01-10T09:10:52.358Z,93897.38
2018-01-10T09:13:20.113Z,93892.23
2018-01-10T09:15:47.826Z,93892.50
2018-01-10T09:18:15.590Z,93897.10
2018-01-10T09:20:43.275Z,93897.09
2018-01-10T09:23:11.105Z,93897.10
2018-01-10T09:25:38.886Z,93893.64
2018-01-10T09:28:06.607Z,93888.20
2018-01-10T09:30:34.505Z,93890.16
2018-01-10T09:33:02.267Z,93893.27
2018-01-10T09:35:30.055Z,93883.09
2018-01-10T09:37:57.798Z,93885.58
2018-01-10T09:40:25.612Z,93888.32
2018-01-10T09:42:54.568Z,93886.10
2018-01-10T09:45:22.274Z,93881.58
2018-01-10T09:47:50.081Z,93884.11
2018-01-10T09:50:17.858Z,93879.78
2018-01-10T09:52:45.578Z,93887.92
2018-01-10T09:55:13.367Z,93878.67
2018-01-10T09:57:41.108Z,93875.25
2018-01-10T10:00:08.896Z,93874.69
2018-01-10T10:02:36.635Z,93875.73
2018-01-10T10:05:04.399Z,93869.37
2018-01-10T10:07:32.156Z,93874.48
2018-01-10T10:09:59.936Z,93871.59
2018-01-10T10:12:27.774Z,93874.40
2018-01-10T10:14:55.525Z,93867.00
2018-01-10T10:17:23.365Z,93867.00
2018-01-10T10:19:51.102Z,93863.41
2018-01-10T10:22:18.913Z,93859.09
2018-01-10T10:24:46.692Z,93856.52
2018-01-10T10:27:14.420Z,93857.09
2018-01-10T10:29:42.216Z,93856.15
2018-01-10T10:32:09.949Z,93846.65
2018-01-10T10:34:37.731Z,93841.47
2018-01-10T10:37:05.502Z,93843.70
2018-01-10T10:39:33.198Z,93837.77
2018-01-10T10:42:01.649Z,93836.02
2018-01-10T10:44:29.475Z,93831.78
2018-01-10T10:46:57.251Z,93826.91
2018-01-10T10:49:25.058Z,93824.38
2018-01-10T10:51:52.806Z,93820.58
2018-01-10T10:54:20.534Z,93817.25
2018-01-10T10:56:48.244Z,93812.80
2018-01-10T10:59:16.012Z,93807.48
2018-01-10T11:01:43.910Z,93811.63
2018-01-10T11:04:11.622Z,93800.91
2018-01-10T11:06:39.308Z,93794.94
2018-01-10T11:09:07.093Z,93797.14
2018-01-10T11:11:34.837Z,93795.19
2018-01-10T11:14:02.649Z,93789.37
2018-01-10T11:16:31.309Z,93782.70
2018-01-10T11:18:59.086Z,93784.66
2018-01-10T11:21:26.838Z,93771.92
2018-01-10T11:23:54.654Z,93774.06
2018-01-10T11:26:22.401Z,93770.84
2018-01-10T11:28:50.179Z,93762.91
2018-01-10T11:31:17.951Z,93759.16
2018-01-10T11:33:45.640Z,93761.68
2018-01-10T11:36:13.366Z,93749.92
2018-01-10T11:38:41.224Z,93749.91
2018-01-10T11:41:08.932Z,93747.35
2018-01-10T11:43:36.757Z,93747.42
2018-01-10T11:46:04.628Z,93739.88
2018-01-10T11:48:32.376Z,93735.31
2018-01-10T11:51:00.285Z,93738.37
2018-01-10T11:55:55.698Z,93726.45
2018-01-10T11:58:23.400Z,93721.19
2018-01-10T12:00:51.174Z,93724.56
2018-01-10T12:03:18.851Z,93722.48
2018-01-10T12:05:46.661Z,93717.70
2018-01-10T12:08:14.417Z,93726.51
2018-01-10T12:10:42.198Z,93719.99
2018-01-10T12:13:10.136Z,93712.27
2018-01-10T12:15:37.911Z,93708.00
2018-01-10T12:18:06.107Z,93699.19
2018-01-10T12:20:33.959Z,93700.16
2018-01-10T12:23:01.738Z,93693.70
2018-01-10T12:25:29.454Z,93694.00
2018-01-10T12:27:57.246Z,93682.47
2018-01-10T12:30:25.083Z,93676.28
2018-01-10T12:32:52.809Z,93677.34
2018-01-10T12:35:20.563Z,93677.68
2018-01-10T12:37:48.289Z,93674.27
2018-01-10T12:40:15.988Z,93665.34
2018-01-10T12:42:43.693Z,93659.06
2018-01-10T12:45:11.499Z,93660.08
2018-01-10T12:47:39.291Z,93658.53
2018-01-10T12:50:07.232Z,93659.52
2018-01-10T12:52:35.736Z,93658.93
2018-01-10T12:55:03.463Z,93651.03
2018-01-10T12:57:31.248Z,93650.97
2018-01-10T12:59:59.031Z,93648.98
2018-01-10T13:02:26.748Z,93638.05
2018-01-10T13:04:54.556Z,93638.89
2018-01-10T13:07:22.286Z,93638.66
2018-01-10T13:09:50.096Z,93635.08
2018-01-10T13:12:17.868Z,93636.98
2018-01-10T13:14:45.606Z,93632.77
2018-01-10T13:17:13.604Z,93640.47
2018-01-10T13:19:42.603Z,93634.64
2018-01-10T13:22:11.276Z,93636.63
2018-01-10T13:24:40.115Z,93632.25
2018-01-10T13:27:07.926Z,93630.41
2018-01-10T13:29:35.615Z,93629.56
2018-01-10T13:32:03.381Z,93633.12
2018-01-10T13:34:31.093Z,93629.91
2018-01-10T13:37:00.615Z,93638.19
2018-01-10T13:39:28.401Z,93635.32
2018-01-10T13:41:56.579Z,93628.18
2018-01-10T13:44:24.425Z,93636.28
2018-01-10T13:46:52.461Z,93638.63
2018-01-10T13:49:21.019Z,93636.05
2018-01-10T13:51:48.817Z,93630.76
2018-01-10T13:54:16.933Z,93627.05
2018-01-10T13:56:44.697Z,93621.23
2018-01-10T13:59:12.414Z,93617.84
2018-01-10T14:01:40.181Z,93615.66
2018-01-10T14:04:07.959Z,93619.05
2018-01-10T14:06:35.734Z,93614.25
2018-01-10T14:09:04.516Z,93614.73
2018-01-10T14:11:33.276Z,93611.55
2018-01-10T14:14:01.070Z,93617.88
2018-01-10T14:16:30.786Z,93615.22
2018-01-10T14:18:58.557Z,93620.86
2018-01-10T14:21:26.419Z,93620.02
2018-01-10T14:23:54.131Z,93618.52
2018-01-10T14:26:22.394Z,93624.38
2018-01-10T14:28:50.176Z,93621.95
2018-01-10T14:31:17.899Z,93617.83
2018-01-10T14:33:45.844Z,93615.88
2018-01-10T14:36:13.636Z,93621.63
2018-01-10T14:38:42.722Z,93621.86
2018-01-10T14:41:10.522Z,93622.83
2018-01-10T14:43:38.398Z,93624.73
2018-01-10T14:46:06.154Z,93628.68
2018-01-10T14:48:34.022Z,93625.59
2018-01-10T14:51:01.943Z,93625.16
2018-01-10T14:53:31.307Z,93633.19
2018-01-10T14:55:59.208Z,93632.70
2018-01-10T14:58:26.904Z,93636.43
2018-01-10T15:00:54.628Z,93643.84
2018-01-10T15:03:22.387Z,93640.07
2018-01-10T15:05:50.188Z,93645.39
2018-01-10T15:08:17.953Z,93647.05
2018-01-10T15:10:45.810Z,93646.66
2018-01-10T15:13:13.668Z,93649.52
2018-01-10T15:15:41.418Z,93647.56
2018-01-10T15:18:09.924Z,93642.73
2018-01-10T15:20:37.695Z,93646.84
2018-01-10T15:23:05.724Z,93655.12
2018-01-10T15:25:33.416Z,93658.14
2018-01-10T15:28:02.554Z,93662.06
2018-01-10T15:30:30.332Z,93657.98
2018-01-10T15:32:59.996Z,93654.96
2018-01-10T15:35:27.980Z,93655.97
2018-01-10T15:37:55.672Z,93664.74
2018-01-10T15:40:23.418Z,93666.03
2018-01-10T15:42:51.181Z,93667.20
2018-01-10T15:45:19.608Z,93672.70
2018-01-10T15:47:47.407Z,93669.80
2018-01-10T15:50:15.095Z,93678.72
2018-01-10T15:52:42.887Z,93670.47
2018-01-10T15:55:10.728Z,93668.47
2018-01-10T15:57:38.560Z,93663.73
2018-01-10T16:00:07.284Z,93660.92
2018-01-10T16:02:35.001Z,93666.05
2018-01-10T16:05:02.778Z,93665.23
2018-01-10T16:07:31.753Z,93664.45
2018-01-10T16:09:59.728Z,93672.55
2018-01-10T16:12:27.472Z,93670.87
2018-01-10T16:14:55.192Z,93674.06
2018-01-10T16:17:22.982Z,93671.59
2018-01-10T16:19:51.222Z,93671.94
2018-01-10T16:22:18.999Z,93678.35
2018-01-10T16:24:46.822Z,93673.63
2018-01-10T16:27:14.536Z,93675.31
2018-01-10T16:29:42.362Z,93677.34
2018-01-10T16:32:11.054Z,93677.91
2018-01-10T16:34:38.844Z,93680.61
2018-01-10T16:37:06.545Z,93682.67
2018-01-10T16:39:34.746Z,93687.94
2018-01-10T16:42:02.456Z,93684.14
2018-01-10T16:44:30.197Z,93686.34
2018-01-10T16:46:58.771Z,93688.47
2018-01-10T16:49:26.526Z,93686.52
2018-01-10T16:51:54.246Z,93693.18
2018-01-10T16:54:22.107Z,93701.64
2018-01-10T16:56:49.843Z,93698.41
2018-01-10T16:59:17.586Z,93704.55
2018-01-10T17:01:45.405Z,93705.62
2018-01-10T17:04:13.627Z,93706.50
2018-01-10T17:06:41.408Z,93707.55
2018-01-10T17:09:09.359Z,93701.02
2018-01-10T17:11:37.055Z,93708.66
2018-01-10T17:14:04.809Z,93703.41
2018-01-10T17:16:33.462Z,93704.51
2018-01-10T17:19:01.318Z,93709.66
2018-01-10T17:21:29.074Z,93712.45
2018-01-10T17:23:56.812Z,93708.48
2018-01-10T17:26:24.641Z,93710.28
2018-01-10T17:28:52.542Z,93705.78
2018-01-10T17:31:20.377Z,93710.86
2018-01-10T17:33:48.376Z,93704.42
2018-01-10T17:36:16.208Z,93712.36
2018-01-10T17:38:43.994Z,93714.25
2018-01-10T17:41:11.780Z,93718.44
2018-01-10T17:43:39.535Z,93720.25
2018-01-10T17:46:07.320Z,93718.19
2018-01-10T17:48:35.040Z,93721.94
2018-01-10T17:51:03.961Z,93724.36
2018-01-10T17:53:31.814Z,93728.83
2018-01-10T17:55:59.557Z,93731.98
2018-01-10T17:58:27.450Z,93730.52
2018-01-10T18:00:55.620Z,93732.75
2018-01-10T18:03:23.442Z,93731.88
2018-01-10T18:05:51.294Z,93736.59
2018-01-10T18:08:19.069Z,93739.66
2018-01-10T18:10:46.803Z,93748.52
2018-01-10T18:13:14.584Z,93747.10
2018-01-10T18:15:42.778Z,93754.41
2018-01-10T18:18:10.555Z,93756.38
2018-01-10T18:20:38.392Z,93753.33
2018-01-10T18:23:06.120Z,93749.53
2018-01-10T18:25:33.881Z,93747.33
2018-01-10T18:28:01.679Z,93755.06
2018-01-10T18:30:29.487Z,93752.16
2018-01-10T18:32:57.444Z,93755.42
2018-01-10T18:35:25.218Z,93753.98
2018-01-10T18:37:54.319Z,93756.53
2018-01-10T18:40:22.066Z,93758.48
2018-01-10T18:42:49.870Z,93757.84
2018-01-10T18:45:17.664Z,93755.75
2018-01-10T18:47:46.359Z,93758.77
2018-01-10T18:50:14.084Z,93756.93
2018-01-10T18:52:43.972Z,93752.63
2018-01-10T18:55:11.960Z,93753.20
2018-01-10T18:57:39.908Z,93749.88
2018-01-10T19:00:08.099Z,93750.08
2018-01-10T19:02:36.046Z,93750.67
2018-01-10T19:05:04.360Z,93747.28
2018-01-10T19:07:32.609Z,93747.34
2018-01-10T19:10:00.792Z,93745.58
2018-01-10T19:12:28.716Z,93746.55
2018-01-10T19:14:56.570Z,93748.84
2018-01-10T19:17:24.346Z,93746.20
2018-01-10T19:19:52.138Z,93740.75
2018-01-10T19:22:20.906Z,93739.73
2018-01-10T19:24:48.884Z,93743.54
2018-01-10T19:27:16.690Z,93739.83
2018-01-10T19:29:44.649Z,93741.05
2018-01-10T19:32:12.486Z,93739.59
2018-01-10T19:34:40.479Z,93737.02
2018-01-10T19:37:09.530Z,93742.80
2018-01-10T19:39:37.466Z,93742.17
2018-01-10T19:42:06.235Z,93740.98
2018-01-10T19:44:34.696Z,93745.13
2018-01-10T19:47:02.538Z,93744.59
2018-01-10T19:49:31.447Z,93751.44
2018-01-10T19:51:59.313Z,93755.20
2018-01-10T19:54:27.116Z,93758.27
2018-01-10T19:56:54.923Z,93757.52
2018-01-10T19:59:23.150Z,93757.00
2018-01-10T20:01:51.058Z,93761.46
2018-01-10T20:04:18.895Z,93758.50
2018-01-10T20:06:46.831Z,93761.41
2018-01-10T20:09:14.754Z,93752.00
2018-01-10T20:11:42.513Z,93751.70
2018-01-10T20:14:10.406Z,93753.51
2018-01-10T20:16:38.215Z,93745.64
2018-01-10T20:19:05.971Z,93743.50
2018-01-10T20:21:33.852Z,93750.89
2018-01-10T20:24:01.638Z,93752.02
2018-01-10T20:26:29.492Z,93743.37
2018-01-10T20:28:57.383Z,93746.95
2018-01-10T20:31:26.352Z,93750.70
2018-01-10T20:33:54.191Z,93758.43
2018-01-10T20:36:21.918Z,93755.77
2018-01-10T20:38:50.926Z,93760.31
2018-01-10T20:41:18.675Z,93757.97
2018-01-10T20:43:46.624Z,93754.17
2018-01-10T20:46:14.487Z,93753.86
2018-01-10T20:48:42.336Z,93757.72
2018-01-10T20:51:10.109Z,93754.85
2018-01-10T20:53:37.839Z,93760.02
2018-01-10T20:56:05.645Z,93753.80
2018-01-10T20:58:34.015Z,93765.46
2018-01-10T21:01:01.735Z,93753.53
2018-01-10T21:03:30.476Z,93757.55
2018-01-10T21:05:58.365Z,93751.52
2018-01-10T21:08:26.826Z,93747.39
2018-01-10T21:10:54.607Z,93745.70
2018-01-10T21:13:22.609Z,93750.33
2018-01-10T21:15:50.320Z,93751.83
2018-01-10T21:18:18.157Z,93753.06
2018-01-10T21:20:45.926Z,93755.45
2018-01-10T21:23:14.928Z,93758.19
2018-01-10T21:25:42.683Z,93758.85
2018-01-10T21:28:10.451Z,93758.55
2018-01-10T21:30:38.325Z,93754.88
2018-01-10T21:33:06.062Z,93760.48
2018-01-10T21:35:33.852Z,93762.74
2018-01-10T21:38:01.592Z,93760.41
2018-01-10T21:40:29.354Z,93765.27
2018-01-10T21:42:58.054Z,93763.83
2018-01-10T21:45:26.046Z,93763.95
2018-01-10T21:47:53.817Z,93759.89
2018-01-10T21:50:21.515Z,93759.14
2018-01-10T21:52:49.267Z,93761.97
2018-01-10T21:55:16.984Z,93759.80
2018-01-10T21:57:44.759Z,93761.07
2018-01-10T22:00:12.620Z,93753.97
2018-01-10T22:02:40.356Z,93753.97
2018-01-10T22:05:08.127Z,93754.85
2018-01-10T22:07:35.829Z,93759.14
2018-01-10T22:10:03.524Z,93755.73
2018-01-10T22:12:31.303Z,93755.95
2018-01-10T22:14:59.098Z,93754.78
2018-01-10T22:17:26.915Z,93757.35
2018-01-10T22:19:55.800Z,93751.38
2018-01-10T22:22:23.487Z,93755.98
2018-01-10T22:24:51.237Z,93760.14
2018-01-10T22:27:18.986Z,93761.82
2018-01-10T22:29:46.739Z,93760.76
2018-01-10T22:32:14.455Z,93761.30
2018-01-10T22:34:42.236Z,93761.70
2018-01-10T22:37:09.922Z,93764.09
2018-01-10T22:39:37.766Z,93753.30
2018-01-10T22:42:05.465Z,93755.31
2018-01-10T22:44:33.537Z,93755.83
2018-01-10T22:47:01.304Z,93757.14
2018-01-10T22:49:29.231Z,93751.52
2018-01-10T22:51:56.955Z,93755.54
2018-01-10T22:54:24.722Z,93752.27
2018-01-10T22:56:52.743Z,93752.58
2018-01-10T22:59:21.154Z,93754.83
2018-01-10T23:01:49.008Z,93757.77
2018-01-10T23:04:16.792Z,93752.86
2018-01-10T23:06:44.502Z,93751.38
2018-01-10T23:09:12.189Z,93756.87
2018-01-10T23:11:39.936Z,93755.37
2018-01-10T23:14:07.677Z,93757.40
2018-01-10T23:16:35.436Z,93757.00
2018-01-10T23:19:03.196Z,93761.24
2018-01-10T23:21:30.899Z,93760.76
2018-01-10T23:23:58.562Z,93764.34
2018-01-10T23:26:26.322Z,93759.49
2018-01-10T23:28:54.008Z,93762.14
2018-01-10T23:31:21.727Z,93757.00
2018-01-10T23:33:49.486Z,93757.72
2018-01-10T23:36:17.405Z,93754.55
2018-01-10T23:38:45.103Z,93762.63
2018-01-10T23:41:12.783Z,93755.83
2018-01-10T23:43:40.517Z,93758.61
2018-01-10T23:46:08.190Z,93755.43
2018-01-10T23:48:35.940Z,93757.91
2018-01-10T23:51:03.628Z,93757.64
2018-01-10T23:53:31.359Z,93766.39
2018-01-10T23:55:59.104Z,93765.31
2018-01-10T23:58:26.854Z,93769.81
